Time;durP1;ratioP1;P1;durP2;ratioP2;P2;SDS_P1;SDS_P2;PMS_P1;PMS_P2;Temp;Humidity;BMP_temperature;BMP_pressure;BME280_temperature;BME280_humidity;BME280_pressure;Samples;Min_cycle;Max_cycle;Signal;HPM_P1;HPM_P2
2022/05/04 00:01:25;;;;;;;1.85;1.20;;;;;;;10.23;47.53;99015.75;5006438;28;20107;-81
2022/05/04 00:03:51;;;;;;;2.45;1.20;;;;;;;10.54;47.40;99074.97;5004222;28;20041;-80
2022/05/04 00:06:17;;;;;;;2.88;1.20;;;;;;;10.47;47.86;99076.00;5010390;28;20125;-79
2022/05/04 00:08:43;;;;;;;4.18;1.40;;;;;;;10.52;47.36;99083.72;5025236;28;20045;-80
2022/05/04 00:11:09;;;;;;;2.92;1.48;;;;;;;10.52;47.44;99086.31;5023762;28;20048;-79
2022/05/04 00:13:35;;;;;;;2.78;1.50;;;;;;;10.55;47.34;99087.09;5024657;28;20129;-79
2022/05/04 00:16:01;;;;;;;2.35;1.48;;;;;;;10.38;47.44;99055.34;5005679;28;20049;-78
2022/05/04 00:18:29;;;;;;;2.85;1.58;;;;;;;10.47;47.25;99085.53;5011128;28;20042;-79
2022/05/04 00:20:56;;;;;;;2.13;1.38;;;;;;;10.51;47.64;99097.59;5025271;28;20041;-79
2022/05/04 00:23:22;;;;;;;1.85;1.52;;;;;;;10.37;47.53;99071.81;5024151;28;20136;-80
2022/05/04 00:25:48;;;;;;;2.15;1.30;;;;;;;10.55;47.26;99101.84;5004541;28;20570;-81
2022/05/04 00:28:15;;;;;;;1.98;1.27;;;;;;;10.45;47.34;99082.09;4992751;28;20508;-78
2022/05/04 00:30:42;;;;;;;4.05;1.30;;;;;;;10.46;47.37;99082.09;5006307;28;20041;-81
2022/05/04 00:33:08;;;;;;;4.72;1.30;;;;;;;10.54;47.60;99090.56;5006425;28;20917;-78
2022/05/04 00:35:34;;;;;;;1.60;1.50;;;;;;;10.62;47.64;99095.63;4994186;28;20048;-79
2022/05/04 00:38:00;;;;;;;1.92;1.50;;;;;;;10.51;47.62;99075.03;5029870;28;20049;-79
2022/05/04 00:40:27;;;;;;;3.15;1.58;;;;;;;10.65;47.70;99084.31;5025222;28;20103;-79
2022/05/04 00:42:53;;;;;;;4.63;1.70;;;;;;;10.47;47.63;99054.31;5023374;28;20516;-83
2022/05/04 00:45:19;;;;;;;5.90;1.85;;;;;;;10.60;47.30;99065.34;4992130;28;20072;-81
2022/05/04 00:47:45;;;;;;;5.13;1.48;;;;;;;10.61;47.13;99090.47;5008755;28;20113;-80
2022/05/04 00:50:11;;;;;;;1.52;1.30;;;;;;;10.54;47.30;99093.19;5005679;28;20061;-79
2022/05/04 00:52:41;;;;;;;3.53;1.40;;;;;;;10.46;47.62;99094.22;4976191;28;20432;-79
2022/05/04 00:55:08;;;;;;;1.83;1.20;;;;;;;10.21;47.64;99066.94;4992998;28;20045;-81
2022/05/04 01:00:27;;;;;;;2.92;1.40;;;;;;;10.41;47.80;99094.31;5024098;28;20081;-80
2022/05/04 01:02:54;;;;;;;3.03;1.40;;;;;;;10.34;48.15;99061.47;5008850;28;20064;-81
2022/05/04 01:05:19;;;;;;;2.58;1.33;;;;;;;10.41;48.17;99086.53;5022707;28;20045;-82
2022/05/04 01:07:48;;;;;;;2.05;1.05;;;;;;;10.36;48.54;99089.19;5005155;28;20178;-79
2022/05/04 01:10:15;;;;;;;1.67;1.33;;;;;;;10.15;48.59;99061.84;5004417;28;20045;-79
2022/05/04 01:12:49;;;;;;;2.80;1.40;;;;;;;10.27;48.39;99075.47;5023301;28;20033;-81
2022/05/04 01:15:17;;;;;;;2.88;1.55;;;;;;;10.16;48.11;99057.47;5016870;28;20052;-78
2022/05/04 01:17:43;;;;;;;1.85;1.42;;;;;;;10.25;48.14;99075.53;5043514;28;20079;-80
2022/05/04 01:20:10;;;;;;;3.22;1.40;;;;;;;10.02;48.21;99037.81;5004578;28;20573;-82
2022/05/04 01:22:36;;;;;;;2.95;1.20;;;;;;;10.25;48.21;99078.13;5005265;28;20064;-80
2022/05/04 01:25:03;;;;;;;3.00;1.48;;;;;;;10.09;48.55;99054.16;5002927;28;20492;-80
2022/05/04 01:27:29;;;;;;;4.50;1.42;;;;;;;10.12;48.33;99058.44;5024225;28;20059;-78
2022/05/04 01:29:55;;;;;;;4.50;1.40;;;;;;;10.05;48.44;99055.97;5013066;28;20155;-78
2022/05/04 01:32:21;;;;;;;3.78;1.30;;;;;;;10.06;48.63;99069.78;5012802;28;20053;-80
2022/05/04 01:34:47;;;;;;;4.03;1.40;;;;;;;10.07;48.71;99076.72;4993238;28;20052;-82
2022/05/04 01:37:13;;;;;;;4.25;1.50;;;;;;;9.92;49.01;99073.50;5038462;28;20541;-78
2022/05/04 01:39:39;;;;;;;2.90;1.33;;;;;;;10.04;49.29;99088.03;5020363;28;20049;-80
2022/05/04 01:42:09;;;;;;;3.33;1.38;;;;;;;9.89;49.03;99055.38;5007957;28;20388;-78
2022/05/04 01:44:35;;;;;;;4.55;1.20;;;;;;;9.93;49.21;99064.84;5023404;28;20134;-81
2022/05/04 01:47:01;;;;;;;4.47;1.27;;;;;;;9.86;48.76;99050.22;4986141;28;20037;-81
2022/05/04 01:49:27;;;;;;;4.05;1.50;;;;;;;10.07;48.87;99084.50;4989946;28;21179;-78
2022/05/04 01:51:54;;;;;;;3.50;1.40;;;;;;;9.87;48.95;99057.13;4977913;28;20041;-80
2022/05/04 01:54:20;;;;;;;6.35;1.48;;;;;;;9.83;48.81;99083.22;5007408;28;20408;-79
2022/05/04 01:56:46;;;;;;;6.90;1.40;;;;;;;9.70;48.77;99092.94;5006615;28;20029;-78
2022/05/04 01:59:12;;;;;;;12.90;1.88;;;;;;;9.39;49.14;99078.72;5027419;28;20136;-79
2022/05/04 02:01:38;;;;;;;5.63;1.75;;;;;;;9.15;49.19;99059.19;5003725;28;20140;-81
2022/05/04 02:04:05;;;;;;;6.40;2.17;;;;;;;9.22;49.06;99097.13;4991303;28;20042;-79
2022/05/04 02:06:32;;;;;;;2.58;1.45;;;;;;;8.97;49.74;99083.66;5002616;28;20045;-81
2022/05/04 02:08:59;;;;;;;4.75;1.55;;;;;;;8.83;49.44;99095.06;4991895;28;20048;-79
2022/05/04 02:11:25;;;;;;;6.50;1.63;;;;;;;8.80;49.73;99102.03;4998917;28;20037;-79
2022/05/04 02:13:51;;;;;;;9.40;2.72;;;;;;;8.60;50.22;99077.22;5004686;28;20049;-77
2022/05/04 02:16:17;;;;;;;11.30;2.40;;;;;;;8.53;50.34;99079.03;4974744;28;20033;-79
2022/05/04 02:18:43;;;;;;;8.00;2.33;;;;;;;8.61;50.37;99104.88;4994290;28;20044;-80
2022/05/04 02:21:09;;;;;;;6.57;1.90;;;;;;;8.40;50.35;99080.88;5024763;28;20057;-80
2022/05/04 02:23:36;;;;;;;6.35;1.48;;;;;;;8.40;50.80;99088.66;5022719;28;20443;-80
2022/05/04 02:26:02;;;;;;;5.82;1.60;;;;;;;8.53;50.98;99109.28;5006090;28;20069;-78
2022/05/04 02:28:28;;;;;;;11.05;2.17;;;;;;;8.36;50.83;99083.53;5026594;28;20072;-79
2022/05/04 02:30:54;;;;;;;11.60;1.98;;;;;;;8.47;51.28;99105.00;5010534;28;20132;-78
2022/05/04 02:33:21;;;;;;;10.82;2.30;;;;;;;8.41;51.33;99098.16;4995233;28;21067;-81
2022/05/04 02:38:31;;;;;;;9.35;2.47;;;;;;;8.48;51.51;99092.91;5005807;28;20515;-80
2022/05/04 02:40:57;;;;;;;11.95;2.55;;;;;;;8.68;51.23;99122.09;5007674;28;20041;-81
2022/05/04 02:43:25;;;;;;;3.75;2.08;;;;;;;8.57;51.70;99088.50;4995286;28;20041;-81
2022/05/04 02:45:51;;;;;;;5.00;2.00;;;;;;;8.79;51.20;99116.75;5024609;28;20048;-81
2022/05/04 02:48:17;;;;;;;5.25;2.10;;;;;;;8.96;51.44;99132.09;5023355;28;20132;-79
2022/05/04 02:50:43;;;;;;;4.25;1.65;;;;;;;9.08;51.57;99127.63;5024762;28;20041;-79
2022/05/04 02:53:09;;;;;;;3.00;2.20;;;;;;;8.87;51.25;99080.34;5047222;28;20049;-79
2022/05/04 02:55:37;;;;;;;6.53;1.95;;;;;;;9.03;50.98;99100.00;5030589;28;20136;-81
2022/05/04 02:58:03;;;;;;;4.05;2.03;;;;;;;9.18;51.17;99114.50;5007615;28;20057;-80
2022/05/04 03:00:29;;;;;;;3.20;1.90;;;;;;;9.44;51.05;99138.38;4995490;28;20072;-80
2022/05/04 03:02:55;;;;;;;3.72;1.63;;;;;;;9.44;51.25;99128.84;4980735;28;20128;-80
2022/05/04 03:05:22;;;;;;;6.28;1.80;;;;;;;9.60;50.77;99147.63;5025984;28;20874;-79
2022/05/04 03:07:48;;;;;;;6.47;1.70;;;;;;;9.53;50.94;99120.06;5011199;28;20304;-81
2022/05/04 03:10:15;;;;;;;2.53;1.77;;;;;;;9.69;50.54;99132.81;5025242;28;20048;-81
2022/05/04 03:12:41;;;;;;;3.53;1.77;;;;;;;9.87;50.57;99163.69;5023960;28;20469;-79
2022/05/04 03:15:08;;;;;;;2.47;1.27;;;;;;;9.97;50.13;99158.34;4995638;28;20096;-80
2022/05/04 03:17:34;;;;;;;2.35;1.45;;;;;;;10.12;50.04;99152.88;5026210;28;20037;-80
2022/05/04 03:20:01;;;;;;;2.35;1.50;;;;;;;10.24;49.78;99149.22;5008537;28;20141;-80
2022/05/04 03:22:29;;;;;;;2.42;1.10;;;;;;;9.95;49.49;99094.25;5040274;28;20045;-81
2022/05/04 03:24:55;;;;;;;2.97;2.30;;;;;;;10.22;49.70;99128.44;5009695;28;20072;-78
2022/05/04 03:27:21;;;;;;;1.63;1.25;;;;;;;10.49;49.23;99152.25;4990397;28;20041;-81
2022/05/04 03:29:48;;;;;;;2.90;1.50;;;;;;;10.51;49.08;99149.63;5014343;28;20123;-82
2022/05/04 03:32:14;;;;;;;3.85;1.52;;;;;;;10.45;48.91;99147.13;5009775;28;20447;-78
2022/05/04 03:34:40;;;;;;;1.95;1.40;;;;;;;10.54;48.82;99163.41;5016717;28;20451;-80
2022/05/04 03:37:06;;;;;;;2.78;1.38;;;;;;;10.53;48.30;99138.28;5016279;28;20056;-78
2022/05/04 03:39:32;;;;;;;6.28;1.38;;;;;;;10.79;48.16;99165.56;5034485;28;20049;-81
2022/05/04 03:41:59;;;;;;;2.13;1.40;;;;;;;10.86;47.91;99171.47;5003576;28;20535;-80
2022/05/04 03:44:25;;;;;;;1.63;1.20;;;;;;;10.91;47.68;99166.22;5012870;28;20048;-79
2022/05/04 03:46:53;;;;;;;1.65;1.23;;;;;;;10.85;47.54;99170.63;5009775;28;20056;-79
2022/05/04 03:49:21;;;;;;;2.65;1.40;;;;;;;10.74;47.36;99153.53;5015962;28;20053;-79
2022/05/04 03:51:47;;;;;;;2.10;0.95;;;;;;;10.71;47.29;99154.41;5024377;28;20560;-81
2022/05/04 03:54:13;;;;;;;1.05;0.90;;;;;;;10.73;47.41;99157.84;5026304;28;20041;-79
2022/05/04 03:56:39;;;;;;;1.75;1.10;;;;;;;10.69;47.01;99154.47;5027864;28;20124;-80
2022/05/04 03:59:06;;;;;;;2.58;0.98;;;;;;;10.62;46.91;99170.22;5018837;28;20041;-79
2022/05/04 04:01:32;;;;;;;1.58;0.95;;;;;;;10.82;46.89;99183.72;5021325;28;20037;-79
2022/05/04 04:04:00;;;;;;;1.95;1.10;;;;;;;10.81;46.88;99153.38;5013263;28;20500;-79
2022/05/04 04:06:28;;;;;;;2.15;0.95;;;;;;;11.23;46.37;99164.66;5014895;28;20053;-79
2022/05/04 04:08:55;;;;;;;3.15;1.15;;;;;;;11.43;46.15;99166.84;5019813;28;20062;-80
2022/05/04 04:11:21;;;;;;;1.73;1.10;;;;;;;11.51;46.19;99161.44;5020181;28;20528;-83
2022/05/04 04:13:47;;;;;;;2.33;1.10;;;;;;;11.74;45.18;99163.50;5010286;28;20045;-80
2022/05/04 04:16:13;;;;;;;11.98;1.40;;;;;;;12.00;45.49;99162.03;5026526;28;20516;-81
2022/05/04 04:18:40;;;;;;;2.35;1.15;;;;;;;12.12;45.05;99151.31;4995515;28;20409;-81
2022/05/04 04:23:50;;;;;;;3.80;1.38;;;;;;;12.47;44.65;99177.34;5022622;28;20052;-80
2022/05/04 04:26:16;;;;;;;1.92;1.42;;;;;;;12.40;44.73;99134.09;5041308;28;20037;-81
2022/05/04 04:28:42;;;;;;;2.47;1.40;;;;;;;12.98;44.41;99170.75;5042915;28;20028;-78
2022/05/04 04:31:09;;;;;;;2.10;1.17;;;;;;;13.33;43.85;99174.09;4996501;28;20064;-80
2022/05/04 04:33:36;;;;;;;2.65;1.77;;;;;;;13.65;43.48;99179.25;5021641;28;20052;-80
2022/05/04 04:36:03;;;;;;;3.88;2.65;;;;;;;13.83;42.85;99180.44;5005042;28;20034;-78
2022/05/04 04:38:29;;;;;;;2.83;1.48;;;;;;;13.95;42.88;99166.94;4992485;28;20045;-80
2022/05/04 04:40:56;;;;;;;3.40;1.20;;;;;;;14.28;42.14;99163.25;5028507;28;20535;-79
2022/05/04 04:43:22;;;;;;;2.03;1.40;;;;;;;14.58;42.11;99163.94;4989082;28;20516;-85
2022/05/04 04:45:49;;;;;;;3.88;1.30;;;;;;;14.67;41.71;99162.78;5010819;28;20635;-80
2022/05/04 04:48:17;;;;;;;2.53;1.50;;;;;;;14.51;41.28;99170.31;4992267;28;20049;-79
2022/05/04 04:50:46;;;;;;;2.22;1.35;;;;;;;14.19;41.44;99179.28;5023156;28;20041;-78
2022/05/04 04:53:14;;;;;;;3.80;1.60;;;;;;;13.91;41.22;99195.88;4992533;28;20104;-79
2022/05/04 04:55:44;;;;;;;5.03;1.50;;;;;;;13.41;42.11;99171.25;4998180;28;20389;-78
2022/05/04 04:58:11;;;;;;;2.00;1.30;;;;;;;13.36;42.82;99187.06;4990337;28;20037;-82
2022/05/04 05:00:37;;;;;;;27.17;13.40;;;;;;;13.53;42.80;99209.22;4998706;28;20044;-82
2022/05/04 05:03:03;;;;;;;10.32;4.43;;;;;;;13.42;42.93;99157.28;4998325;28;20416;-80
2022/05/04 05:05:32;;;;;;;5.97;2.22;;;;;;;13.71;42.63;99158.16;5030786;28;20092;-80
2022/05/04 05:07:58;;;;;;;3.53;1.70;;;;;;;14.10;42.99;99211.84;5032445;28;20056;-80
2022/05/04 05:10:25;;;;;;;3.13;1.95;;;;;;;14.21;42.83;99201.00;5015455;28;20037;-81
2022/05/04 05:12:51;;;;;;;1.70;1.58;;;;;;;14.16;42.50;99193.28;4998949;28;20037;-81
2022/05/04 05:18:05;;;;;;;3.03;1.30;;;;;;;13.51;43.44;99175.31;4994931;28;20042;-79
2022/05/04 05:20:31;;;;;;;3.25;1.80;;;;;;;13.38;43.87;99207.91;4996977;28;20508;-80
2022/05/04 05:23:01;;;;;;;2.75;1.40;;;;;;;13.06;43.94;99207.94;5015552;28;20049;-81
2022/05/04 05:25:28;;;;;;;3.65;1.65;;;;;;;12.58;44.06;99191.00;4997328;28;20493;-80
2022/05/04 05:27:55;;;;;;;1.98;1.20;;;;;;;12.45;44.32;99197.44;4994266;28;20049;-79
2022/05/04 05:30:21;;;;;;;2.60;0.90;;;;;;;12.13;44.69;99202.59;4994136;28;20046;-79
2022/05/04 05:32:47;;;;;;;2.05;1.00;;;;;;;12.00;44.41;99208.97;4996156;28;20054;-80
2022/05/04 05:35:14;;;;;;;18.73;10.82;;;;;;;12.03;44.52;99219.34;4992471;28;20136;-80
2022/05/04 05:37:40;;;;;;;49.00;26.73;;;;;;;12.03;44.19;99216.72;5012645;28;20463;-80
2022/05/04 05:40:06;;;;;;;13.40;6.85;;;;;;;11.79;44.09;99168.63;4998091;28;20034;-79
2022/05/04 05:42:32;;;;;;;28.48;16.45;;;;;;;12.01;43.88;99205.47;5034491;28;20045;-78
2022/05/04 05:44:58;;;;;;;21.90;12.77;;;;;;;11.91;43.44;99170.94;5011345;28;20033;-82
2022/05/04 05:47:25;;;;;;;16.52;9.70;;;;;;;12.25;43.55;99197.94;5026385;28;20728;-79
2022/05/04 05:49:51;;;;;;;6.18;3.35;;;;;;;12.58;42.87;99227.53;5013336;28;20566;-79
2022/05/04 05:52:17;;;;;;;6.55;3.85;;;;;;;12.68;42.43;99224.69;5016626;28;20076;-80
2022/05/04 05:54:44;;;;;;;7.93;4.18;;;;;;;13.07;42.63;99230.56;5025260;28;21023;-79
2022/05/04 05:57:10;;;;;;;5.22;1.88;;;;;;;14.21;41.95;99224.56;5027805;28;20037;-77
2022/05/04 05:59:35;;;;;;;29.20;16.15;;;;;;;16.36;40.51;99219.22;5031545;28;20019;-81
2022/05/04 06:02:02;;;;;;;5.05;2.75;;;;;;;17.87;36.42;99188.84;5028006;28;20029;-80
2022/05/04 06:04:31;;;;;;;15.23;9.70;;;;;;;18.33;35.52;99189.25;5016904;28;20038;-80
2022/05/04 06:06:59;;;;;;;11.45;5.97;;;;;;;18.49;35.00;99217.41;4975395;28;20519;-79
2022/05/04 06:09:28;;;;;;;2.88;1.30;;;;;;;17.21;34.71;99145.53;5005056;28;20055;-79
2022/05/04 06:11:54;;;;;;;5.63;3.47;;;;;;;16.38;35.97;99227.06;5019969;28;20046;-78
2022/05/04 06:14:20;;;;;;;8.80;4.05;;;;;;;15.70;36.64;99214.88;5001464;28;20060;-80
2022/05/04 06:16:47;;;;;;;5.13;2.15;;;;;;;15.31;36.74;99218.13;5021404;28;20146;-79
2022/05/04 06:19:14;;;;;;;8.43;4.60;;;;;;;14.91;37.81;99234.41;5000412;28;20072;-80
2022/05/04 06:21:39;;;;;;;4.70;2.90;;;;;;;14.98;37.90;99237.66;5005583;28;20053;-82
2022/05/04 06:24:06;;;;;;;11.48;4.90;;;;;;;14.98;37.60;99180.00;5020928;28;20041;-79
2022/05/04 06:26:35;;;;;;;9.65;4.82;;;;;;;16.33;38.14;99202.75;5001766;28;20041;-83
2022/05/04 06:29:01;;;;;;;6.43;3.67;;;;;;;17.44;35.56;99203.16;5021958;28;20204;-79
2022/05/04 06:34:12;;;;;;;8.02;2.90;;;;;;;21.74;32.82;99213.06;5003237;28;20067;-80
2022/05/04 06:36:40;;;;;;;3.38;2.35;;;;;;;23.42;30.01;99197.34;5002134;28;20038;-82
2022/05/04 06:39:07;;;;;;;4.50;2.78;;;;;;;23.90;28.99;99197.38;4987026;28;20033;-80
2022/05/04 06:41:35;;;;;;;3.13;2.50;;;;;;;25.47;27.54;99196.13;4987062;28;20060;-80
2022/05/04 06:44:05;;;;;;;3.63;2.00;;;;;;;27.42;25.69;99186.03;5001235;28;20446;-79
2022/05/04 06:46:31;;;;;;;4.57;2.20;;;;;;;29.26;23.55;99178.94;5020760;28;20483;-81
2022/05/04 06:48:57;;;;;;;7.00;3.00;;;;;;;29.20;22.83;99190.25;5000125;28;20034;-79
2022/05/04 06:51:24;;;;;;;5.15;2.03;;;;;;;30.20;21.45;99190.31;4990752;28;20044;-80
2022/05/04 06:53:50;;;;;;;3.60;1.45;;;;;;;30.68;20.23;99179.25;5018392;28;20049;-81
2022/05/04 06:56:17;;;;;;;2.17;1.55;;;;;;;31.36;18.93;99172.19;5002457;28;20107;-80
2022/05/04 06:58:44;;;;;;;3.50;1.73;;;;;;;30.74;19.07;99192.06;5001790;28;20446;-78
2022/05/04 07:01:10;;;;;;;2.10;1.45;;;;;;;31.09;18.38;99195.56;5007506;28;20053;-79
2022/05/04 07:03:37;;;;;;;3.05;1.77;;;;;;;29.82;18.35;99194.97;4988996;28;20042;-78
2022/05/04 07:06:03;;;;;;;9.32;2.88;;;;;;;27.35;19.51;99217.81;5023738;28;20041;-80
2022/05/04 07:08:30;;;;;;;14.18;2.08;;;;;;;24.57;21.52;99240.31;5026345;28;20041;-80
2022/05/04 07:10:56;;;;;;;5.47;1.10;;;;;;;22.52;23.15;99249.47;5010811;28;20041;-80
2022/05/04 07:13:21;;;;;;;4.15;1.20;;;;;;;24.23;23.32;99250.81;5008268;28;20075;-83
2022/05/04 07:15:47;;;;;;;2.97;1.27;;;;;;;26.01;22.71;99247.69;5010791;28;20102;-80
2022/05/04 07:18:16;;;;;;;5.10;1.10;;;;;;;28.02;21.04;99243.97;5025910;28;20042;-80
2022/05/04 07:20:42;;;;;;;3.65;1.00;;;;;;;29.87;18.90;99248.97;4992772;28;20049;-81
2022/05/04 07:23:08;;;;;;;4.28;1.90;;;;;;;31.19;18.00;99252.75;5007328;28;20294;-78
2022/05/04 07:25:34;;;;;;;2.85;1.30;;;;;;;32.67;17.05;99259.44;5010222;28;20037;-79
2022/05/04 07:28:00;;;;;;;2.45;1.25;;;;;;;33.75;15.82;99253.72;5025168;28;20485;-79
2022/05/04 07:30:26;;;;;;;3.45;1.05;;;;;;;35.23;14.86;99277.81;4989017;28;20063;-79
2022/05/04 07:32:52;;;;;;;4.00;1.50;;;;;;;35.43;14.08;99269.97;5025811;28;20054;-80
2022/05/04 07:35:18;;;;;;;2.72;1.20;;;;;;;35.66;14.27;99283.38;5018479;28;20137;-79
2022/05/04 07:37:44;;;;;;;5.28;1.27;;;;;;;36.23;13.95;99280.03;5027028;28;20061;-78
2022/05/04 07:42:56;;;;;;;3.00;1.30;;;;;;;36.46;12.86;99288.00;5006349;28;20258;-81
2022/05/04 07:45:22;;;;;;;3.63;1.50;;;;;;;37.23;12.29;99296.28;5033253;28;20045;-79
2022/05/04 07:47:49;;;;;;;2.45;1.30;;;;;;;37.64;12.36;99298.16;5027429;28;20043;-78
2022/05/04 07:50:17;;;;;;;3.55;1.10;;;;;;;38.23;11.81;99279.53;5026366;28;20045;-81
2022/05/04 07:52:43;;;;;;;9.57;1.70;;;;;;;37.48;12.10;99288.50;5023564;28;20041;-80
2022/05/04 07:55:10;;;;;;;2.28;1.20;;;;;;;35.65;12.31;99287.09;5022627;28;21046;-79
2022/05/04 07:57:37;;;;;;;1.65;1.30;;;;;;;34.20;13.27;99308.75;4993291;28;20352;-80
2022/05/04 08:05:39;;;;;;;9.73;8.73;;;;;;;27.38;16.68;99270.09;5008505;28;20496;-80
2022/05/04 08:08:05;;;;;;;13.00;8.63;;;;;;;26.07;17.31;99336.09;5004805;28;20044;-79
2022/05/04 08:10:31;;;;;;;6.40;4.82;;;;;;;24.78;18.66;99330.09;4976862;28;20041;-79
2022/05/04 08:12:58;;;;;;;4.78;2.83;;;;;;;24.51;18.71;99320.53;5005288;28;20788;-82
2022/05/04 08:15:25;;;;;;;6.45;5.30;;;;;;;24.09;19.25;99338.69;5022626;28;20049;-79
2022/05/04 08:17:51;;;;;;;6.85;3.78;;;;;;;23.15;19.83;99355.75;4989127;28;20543;-79
2022/05/04 08:20:17;;;;;;;11.32;6.55;;;;;;;22.09;20.38;99340.56;5022222;28;20124;-79
2022/05/04 08:22:43;;;;;;;3.08;2.35;;;;;;;21.40;21.41;99368.69;5010575;28;20357;-79
2022/05/04 08:25:10;;;;;;;7.85;6.00;;;;;;;20.45;22.30;99348.56;5025075;28;21479;-80
2022/05/04 08:27:37;;;;;;;6.22;4.00;;;;;;;20.12;23.13;99354.81;5022945;28;20095;-79
2022/05/04 08:30:03;;;;;;;6.38;2.75;;;;;;;21.19;23.37;99387.56;4988147;28;20049;-81
2022/05/04 08:32:36;;;;;;;3.67;2.35;;;;;;;22.16;22.19;99364.88;5023106;28;20057;-77
2022/05/04 08:35:02;;;;;;;17.17;13.10;;;;;;;25.06;21.04;99365.22;5003839;28;20473;-81
2022/05/04 08:37:29;;;;;;;5.40;2.92;;;;;;;27.42;18.14;99343.63;4992533;28;20045;-80
2022/05/04 08:39:56;;;;;;;9.93;7.63;;;;;;;28.66;16.49;99336.22;4992377;28;20134;-78
2022/05/04 08:42:23;;;;;;;8.65;6.35;;;;;;;28.14;16.84;99359.69;5025620;28;20041;-79
2022/05/04 08:44:54;;;;;;;10.55;7.63;;;;;;;28.98;17.05;99356.47;4992946;28;20033;-77
2022/05/04 08:47:22;;;;;;;16.92;11.82;;;;;;;30.56;15.43;99354.00;5028069;28;20069;-79
2022/05/04 08:49:49;;;;;;;17.02;10.02;;;;;;;31.35;14.79;99339.78;5008812;28;20076;-78
2022/05/04 08:52:15;;;;;;;9.32;7.28;;;;;;;30.36;15.21;99346.03;5022628;28;20084;-80
2022/05/04 08:54:45;;;;;;;6.35;3.25;;;;;;;30.15;14.73;99353.53;4992460;28;20033;-81
2022/05/04 08:57:12;;;;;;;2.08;1.40;;;;;;;29.51;14.89;99334.66;4990174;28;20135;-80
2022/05/04 08:59:38;;;;;;;4.72;2.33;;;;;;;30.77;14.26;99342.09;5006085;28;20072;-79
2022/05/04 09:02:04;;;;;;;4.38;2.00;;;;;;;32.22;13.71;99354.94;5005241;28;20555;-78
2022/05/04 09:04:31;;;;;;;6.05;2.47;;;;;;;33.30;12.61;99343.19;4991343;28;20033;-80
2022/05/04 09:07:01;;;;;;;2.22;1.67;;;;;;;33.23;12.44;99335.97;5005579;28;20038;-79
2022/05/04 09:09:27;;;;;;;1.75;1.50;;;;;;;34.16;11.62;99329.03;5023244;28;20101;-79
2022/05/04 09:11:53;;;;;;;2.00;1.30;;;;;;;35.02;11.52;99362.34;5016991;28;20029;-81
2022/05/04 09:14:25;;;;;;;2.97;2.10;;;;;;;35.28;10.66;99353.78;5047010;28;20068;-77
2022/05/04 09:16:52;;;;;;;1.73;1.20;;;;;;;33.63;11.02;99363.84;5019414;28;20081;-79
2022/05/04 09:19:19;;;;;;;2.90;1.52;;;;;;;32.17;11.56;99339.28;5023784;28;20069;-81
2022/05/04 09:21:49;;;;;;;13.73;2.00;;;;;;;30.02;12.56;99384.25;5024754;28;20124;-81
2022/05/04 09:24:25;;;;;;;8.35;2.00;;;;;;;27.65;14.08;99393.25;5012324;28;20041;-79
2022/05/04 09:26:53;;;;;;;7.57;4.05;;;;;;;25.50;15.80;99416.06;4974839;28;20117;-80
2022/05/04 09:29:20;;;;;;;4.88;1.30;;;;;;;23.74;16.88;99423.41;5008777;28;20041;-81
2022/05/04 09:31:47;;;;;;;5.03;1.88;;;;;;;22.63;19.06;99429.03;5007034;28;20049;-80
2022/05/04 09:34:14;;;;;;;2.83;1.50;;;;;;;21.51;20.81;99450.94;4995387;28;20047;-82
2022/05/04 09:45:13;;;;;;;5.50;1.25;;;;;;;18.15;25.10;99451.66;5012904;28;20045;-80
2022/05/04 09:47:40;;;;;;;2.10;1.02;;;;;;;19.46;26.21;99474.44;5014322;28;20037;-80
2022/05/04 09:50:09;;;;;;;2.60;1.10;;;;;;;21.97;24.31;99494.97;5013292;28;20049;-79
2022/05/04 09:52:42;;;;;;;5.10;1.20;;;;;;;24.20;23.00;99493.75;5006311;28;20037;-79
2022/05/04 09:55:15;;;;;;;3.58;1.20;;;;;;;26.06;20.45;99484.50;4989103;28;20069;-77
2022/05/04 09:57:47;;;;;;;3.45;1.30;;;;;;;26.91;19.41;99456.44;5007697;28;20369;-79
2022/05/04 10:00:17;;;;;;;4.95;2.60;;;;;;;27.72;17.95;99484.41;5024145;28;20408;-76
2022/05/04 10:02:46;;;;;;;2.78;1.80;;;;;;;28.15;18.12;99477.19;5023777;28;20050;-78
2022/05/04 10:05:13;;;;;;;3.28;1.20;;;;;;;28.13;17.41;99475.63;5025468;28;20038;-79
2022/05/04 10:07:40;;;;;;;2.75;1.10;;;;;;;28.26;17.30;99482.44;5028675;28;20048;-81
2022/05/04 10:10:07;;;;;;;1.70;1.23;;;;;;;28.30;16.58;99469.63;5000188;28;21130;-79
2022/05/04 10:12:38;;;;;;;2.45;0.95;;;;;;;29.06;16.28;99438.75;5017383;28;20060;-79
2022/05/04 10:15:15;;;;;;;3.10;1.00;;;;;;;29.95;16.14;99454.69;5012516;28;20093;-81
2022/05/04 10:17:53;;;;;;;1.85;0.82;;;;;;;30.64;15.59;99453.34;5012528;28;20132;-77
2022/05/04 10:20:21;;;;;;;3.53;0.82;;;;;;;29.72;15.27;99461.22;4993166;28;20065;-81
2022/05/04 10:23:02;;;;;;;5.38;1.65;;;;;;;29.00;15.23;99458.09;5022314;28;20040;-82
2022/05/04 10:25:34;;;;;;;3.22;1.40;;;;;;;28.50;15.32;99457.16;5024034;28;20045;-80
2022/05/04 10:28:06;;;;;;;6.38;1.60;;;;;;;28.46;15.57;99453.06;5007167;28;20065;-80
2022/05/04 10:30:33;;;;;;;1.60;1.10;;;;;;;26.95;15.87;99446.34;5025201;28;20456;-77
2022/05/04 10:33:00;;;;;;;3.25;1.10;;;;;;;25.33;15.69;99446.59;4978370;28;20046;-79
2022/05/04 10:35:38;;;;;;;1.38;0.90;;;;;;;23.74;16.86;99494.28;5007973;28;20045;-77
2022/05/04 10:38:05;;;;;;;3.13;1.23;;;;;;;22.90;17.57;99488.31;5000981;28;20045;-78
2022/05/04 10:40:42;;;;;;;2.35;0.90;;;;;;;22.10;17.81;99498.56;5015813;28;20053;-80
2022/05/04 10:43:19;;;;;;;2.13;0.90;;;;;;;21.07;18.85;99493.13;5016179;28;20041;-78
2022/05/04 10:45:48;;;;;;;5.20;1.20;;;;;;;20.26;19.21;99483.50;5027494;28;20042;-76
2022/05/04 10:48:19;;;;;;;2.50;1.23;;;;;;;20.31;19.63;99509.66;5039992;28;20094;-79
2022/05/04 10:50:57;;;;;;;1.88;1.10;;;;;;;20.36;19.60;99482.97;5029408;28;20041;-78
2022/05/04 10:53:27;;;;;;;2.35;1.50;;;;;;;20.38;19.49;99495.19;5018483;28;20045;-77
2022/05/04 10:55:56;;;;;;;2.08;1.40;;;;;;;20.12;20.05;99507.13;5015854;28;20622;-79
2022/05/04 10:58:37;;;;;;;12.73;7.35;;;;;;;19.74;20.15;99500.28;5016959;28;20070;-79
2022/05/04 11:01:06;;;;;;;4.13;2.55;;;;;;;19.10;20.96;99502.56;5032126;28;20053;-78
2022/05/04 11:03:37;;;;;;;7.72;2.67;;;;;;;18.41;20.87;99506.69;5022824;28;20087;-79
2022/05/04 11:06:08;;;;;;;3.23;1.73;;;;;;;17.85;21.92;99501.22;5006258;28;20395;-78
2022/05/04 11:08:35;;;;;;;5.00;1.80;;;;;;;17.21;22.36;99496.03;5006940;28;20291;-79
2022/05/04 11:11:05;;;;;;;11.98;7.57;;;;;;;16.59;22.95;99495.78;5006221;28;20324;-79
2022/05/04 11:13:33;;;;;;;25.80;3.33;;;;;;;16.17;23.28;99551.63;4991458;28;20040;-79
2022/05/04 11:16:00;;;;;;;15.05;3.95;;;;;;;15.29;24.33;99563.28;4976354;28;20045;-78
2022/05/04 11:18:28;;;;;;;11.82;2.10;;;;;;;14.10;25.67;99551.94;4999337;28;20048;-78
2022/05/04 11:20:54;;;;;;;3.58;1.80;;;;;;;13.09;27.54;99572.69;5001824;28;20096;-78
2022/05/04 11:23:24;;;;;;;7.85;1.25;;;;;;;12.31;29.84;99625.66;5008106;28;20049;-82
2022/05/04 11:25:54;;;;;;;2.97;1.25;;;;;;;11.50;31.36;99626.13;4982098;28;20072;-79
2022/05/04 11:28:25;;;;;;;3.13;1.13;;;;;;;10.88;33.05;99616.56;5027906;28;20037;-78
2022/05/04 11:30:52;;;;;;;6.65;3.10;;;;;;;10.50;33.97;99658.63;5027711;28;20053;-81
2022/05/04 11:33:18;;;;;;;2.88;1.20;;;;;;;10.08;35.01;99647.75;5025517;28;20045;-80
2022/05/04 11:35:50;;;;;;;2.38;1.70;;;;;;;9.90;35.63;99667.84;5008998;28;20076;-78
2022/05/04 11:38:23;;;;;;;4.72;2.28;;;;;;;9.68;37.28;99650.69;5007916;28;20065;-80
2022/05/04 11:40:50;;;;;;;3.53;1.63;;;;;;;9.49;37.75;99630.91;5004171;28;20037;-79
2022/05/04 11:43:27;;;;;;;5.28;3.28;;;;;;;9.74;38.96;99642.84;5027606;28;20095;-79
2022/05/04 11:45:56;;;;;;;3.33;2.35;;;;;;;10.21;39.66;99631.16;4991547;28;20052;-79
2022/05/04 11:48:23;;;;;;;3.83;2.60;;;;;;;10.89;39.45;99649.53;5000662;28;20040;-81
2022/05/04 11:50:49;;;;;;;6.45;3.50;;;;;;;11.44;38.99;99601.88;5037328;28;20045;-81
2022/05/04 11:53:16;;;;;;;4.38;2.53;;;;;;;12.18;38.51;99632.84;4995039;28;20048;-79
2022/05/04 11:55:45;;;;;;;10.13;6.47;;;;;;;12.64;37.94;99628.47;4994648;28;20033;-81
2022/05/04 11:58:13;;;;;;;7.57;4.70;;;;;;;12.72;37.50;99599.59;4988383;28;20081;-80
2022/05/04 12:00:41;;;;;;;2.67;1.23;;;;;;;12.72;37.04;99615.25;5036423;28;20045;-80
2022/05/04 12:03:11;;;;;;;4.07;2.03;;;;;;;12.35;37.14;99596.84;5012522;28;20040;-80
2022/05/04 12:05:38;;;;;;;6.15;4.00;;;;;;;11.95;36.68;99560.19;5037095;28;20128;-81